sensor_id;sensor_type;location;lat;lon;timestamp;P1;durP1;ratioP1;P2;durP2;ratioP2
14760;SDS011;7472;45.396;5.272;2023-04-06T00:01:00;14.70;;;8.57;;
14760;SDS011;7472;45.396;5.272;2023-04-06T00:03:27;11.43;;;6.97;;
14760;SDS011;7472;45.396;5.272;2023-04-06T00:05:55;15.80;;;8.25;;
14760;SDS011;7472;45.396;5.272;2023-04-06T00:08:24;11.60;;;6.72;;
14760;SDS011;7472;45.396;5.272;2023-04-06T00:10:51;6.68;;;5.45;;
14760;SDS011;7472;45.396;5.272;2023-04-06T00:13:19;10.15;;;6.68;;
14760;SDS011;7472;45.396;5.272;2023-04-06T00:15:46;8.63;;;6.25;;
14760;SDS011;7472;45.396;5.272;2023-04-06T00:18:13;10.77;;;6.85;;
14760;SDS011;7472;45.396;5.272;2023-04-06T00:20:41;8.73;;;6.85;;
14760;SDS011;7472;45.396;5.272;2023-04-06T00:23:08;7.80;;;6.32;;
14760;SDS011;7472;45.396;5.272;2023-04-06T00:25:37;8.18;;;5.03;;
14760;SDS011;7472;45.396;5.272;2023-04-06T00:28:04;9.60;;;6.85;;
14760;SDS011;7472;45.396;5.272;2023-04-06T00:30:32;7.30;;;5.53;;
14760;SDS011;7472;45.396;5.272;2023-04-06T00:32:59;8.80;;;5.78;;
14760;SDS011;7472;45.396;5.272;2023-04-06T00:35:26;7.80;;;4.80;;
14760;SDS011;7472;45.396;5.272;2023-04-06T00:37:54;5.68;;;4.78;;
14760;SDS011;7472;45.396;5.272;2023-04-06T00:40:22;8.75;;;5.85;;
14760;SDS011;7472;45.396;5.272;2023-04-06T00:42:50;8.48;;;6.13;;
14760;SDS011;7472;45.396;5.272;2023-04-06T00:45:18;7.53;;;5.03;;
14760;SDS011;7472;45.396;5.272;2023-04-06T00:47:45;5.43;;;4.85;;
14760;SDS011;7472;45.396;5.272;2023-04-06T00:50:13;7.75;;;5.80;;
14760;SDS011;7472;45.396;5.272;2023-04-06T00:52:40;4.85;;;4.35;;
14760;SDS011;7472;45.396;5.272;2023-04-06T00:55:08;9.55;;;5.47;;
14760;SDS011;7472;45.396;5.272;2023-04-06T00:57:35;6.65;;;4.55;;
14760;SDS011;7472;45.396;5.272;2023-04-06T01:00:05;10.30;;;5.13;;
14760;SDS011;7472;45.396;5.272;2023-04-06T01:02:33;6.10;;;4.60;;
14760;SDS011;7472;45.396;5.272;2023-04-06T01:05:01;6.88;;;4.43;;
14760;SDS011;7472;45.396;5.272;2023-04-06T01:07:28;4.75;;;3.97;;
14760;SDS011;7472;45.396;5.272;2023-04-06T01:09:56;5.57;;;4.28;;
14760;SDS011;7472;45.396;5.272;2023-04-06T01:12:23;7.38;;;4.50;;
14760;SDS011;7472;45.396;5.272;2023-04-06T01:14:51;4.70;;;4.22;;
14760;SDS011;7472;45.396;5.272;2023-04-06T01:17:19;6.20;;;4.68;;
14760;SDS011;7472;45.396;5.272;2023-04-06T01:19:47;4.82;;;4.07;;
14760;SDS011;7472;45.396;5.272;2023-04-06T01:22:17;7.35;;;4.93;;
14760;SDS011;7472;45.396;5.272;2023-04-06T01:24:45;6.93;;;4.53;;
14760;SDS011;7472;45.396;5.272;2023-04-06T01:27:13;5.97;;;4.57;;
14760;SDS011;7472;45.396;5.272;2023-04-06T01:29:40;4.53;;;4.10;;
14760;SDS011;7472;45.396;5.272;2023-04-06T01:32:08;8.45;;;4.03;;
14760;SDS011;7472;45.396;5.272;2023-04-06T01:34:35;6.57;;;4.22;;
14760;SDS011;7472;45.396;5.272;2023-04-06T01:37:03;8.18;;;4.40;;
14760;SDS011;7472;45.396;5.272;2023-04-06T01:39:32;4.80;;;4.00;;
14760;SDS011;7472;45.396;5.272;2023-04-06T01:41:59;5.70;;;4.07;;
14760;SDS011;7472;45.396;5.272;2023-04-06T01:44:27;7.00;;;4.30;;
14760;SDS011;7472;45.396;5.272;2023-04-06T01:46:55;4.00;;;3.63;;
14760;SDS011;7472;45.396;5.272;2023-04-06T01:49:22;4.80;;;4.03;;
14760;SDS011;7472;45.396;5.272;2023-04-06T01:51:50;6.07;;;3.90;;
14760;SDS011;7472;45.396;5.272;2023-04-06T01:54:19;6.05;;;4.30;;
14760;SDS011;7472;45.396;5.272;2023-04-06T01:56:48;7.13;;;4.70;;
14760;SDS011;7472;45.396;5.272;2023-04-06T01:59:17;5.00;;;4.18;;
14760;SDS011;7472;45.396;5.272;2023-04-06T02:01:45;6.30;;;4.68;;
14760;SDS011;7472;45.396;5.272;2023-04-06T02:04:12;7.63;;;5.10;;
14760;SDS011;7472;45.396;5.272;2023-04-06T02:06:39;4.93;;;4.15;;
14760;SDS011;7472;45.396;5.272;2023-04-06T02:09:07;7.47;;;5.38;;
14760;SDS011;7472;45.396;5.272;2023-04-06T02:11:34;5.97;;;4.55;;
14760;SDS011;7472;45.396;5.272;2023-04-06T02:14:03;7.22;;;5.05;;
14760;SDS011;7472;45.396;5.272;2023-04-06T02:16:31;5.65;;;4.80;;
14760;SDS011;7472;45.396;5.272;2023-04-06T02:18:58;5.75;;;4.78;;
14760;SDS011;7472;45.396;5.272;2023-04-06T02:21:25;5.07;;;4.28;;
14760;SDS011;7472;45.396;5.272;2023-04-06T02:23:53;5.45;;;4.63;;
14760;SDS011;7472;45.396;5.272;2023-04-06T02:26:20;6.10;;;5.07;;
14760;SDS011;7472;45.396;5.272;2023-04-06T02:28:48;9.55;;;5.00;;
14760;SDS011;7472;45.396;5.272;2023-04-06T02:31:17;6.72;;;5.03;;
14760;SDS011;7472;45.396;5.272;2023-04-06T02:33:44;8.55;;;6.60;;
14760;SDS011;7472;45.396;5.272;2023-04-06T02:36:12;10.90;;;8.07;;
14760;SDS011;7472;45.396;5.272;2023-04-06T02:38:39;19.05;;;9.15;;
14760;SDS011;7472;45.396;5.272;2023-04-06T02:41:07;13.90;;;8.75;;
14760;SDS011;7472;45.396;5.272;2023-04-06T02:43:34;18.75;;;11.35;;
14760;SDS011;7472;45.396;5.272;2023-04-06T02:46:02;17.40;;;9.63;;
14760;SDS011;7472;45.396;5.272;2023-04-06T02:48:31;16.33;;;9.30;;
14760;SDS011;7472;45.396;5.272;2023-04-06T02:51:01;11.23;;;8.32;;
14760;SDS011;7472;45.396;5.272;2023-04-06T02:53:28;14.15;;;7.43;;
14760;SDS011;7472;45.396;5.272;2023-04-06T02:55:56;8.90;;;6.80;;
14760;SDS011;7472;45.396;5.272;2023-04-06T02:58:23;8.75;;;6.18;;
14760;SDS011;7472;45.396;5.272;2023-04-06T03:00:50;7.53;;;6.20;;
14760;SDS011;7472;45.396;5.272;2023-04-06T03:03:18;9.15;;;5.25;;
14760;SDS011;7472;45.396;5.272;2023-04-06T03:05:47;7.50;;;5.47;;
14760;SDS011;7472;45.396;5.272;2023-04-06T03:08:14;5.70;;;5.00;;
14760;SDS011;7472;45.396;5.272;2023-04-06T03:10:42;6.78;;;5.10;;
14760;SDS011;7472;45.396;5.272;2023-04-06T03:13:09;7.65;;;6.22;;
14760;SDS011;7472;45.396;5.272;2023-04-06T03:15:37;8.55;;;6.07;;
14760;SDS011;7472;45.396;5.272;2023-04-06T03:18:04;7.10;;;5.60;;
14760;SDS011;7472;45.396;5.272;2023-04-06T03:20:31;7.60;;;5.15;;
14760;SDS011;7472;45.396;5.272;2023-04-06T03:23:01;8.27;;;6.03;;
14760;SDS011;7472;45.396;5.272;2023-04-06T03:25:28;6.65;;;5.70;;
14760;SDS011;7472;45.396;5.272;2023-04-06T03:27:56;7.88;;;6.00;;
14760;SDS011;7472;45.396;5.272;2023-04-06T03:30:23;8.85;;;5.80;;
14760;SDS011;7472;45.396;5.272;2023-04-06T03:32:51;12.00;;;6.65;;
14760;SDS011;7472;45.396;5.272;2023-04-06T03:35:19;6.88;;;5.80;;
14760;SDS011;7472;45.396;5.272;2023-04-06T03:37:46;6.82;;;5.57;;
14760;SDS011;7472;45.396;5.272;2023-04-06T03:40:15;7.88;;;5.20;;
14760;SDS011;7472;45.396;5.272;2023-04-06T03:42:42;7.53;;;5.95;;
14760;SDS011;7472;45.396;5.272;2023-04-06T03:45:10;9.95;;;6.22;;
14760;SDS011;7472;45.396;5.272;2023-04-06T03:47:39;8.63;;;5.93;;
14760;SDS011;7472;45.396;5.272;2023-04-06T03:50:06;7.75;;;5.38;;
14760;SDS011;7472;45.396;5.272;2023-04-06T03:52:34;8.70;;;5.93;;
14760;SDS011;7472;45.396;5.272;2023-04-06T03:55:02;7.30;;;5.88;;
14760;SDS011;7472;45.396;5.272;2023-04-06T03:57:30;7.60;;;6.07;;
14760;SDS011;7472;45.396;5.272;2023-04-06T03:59:58;6.80;;;5.05;;
14760;SDS011;7472;45.396;5.272;2023-04-06T04:02:25;9.75;;;6.18;;
14760;SDS011;7472;45.396;5.272;2023-04-06T04:04:53;6.72;;;5.50;;
14760;SDS011;7472;45.396;5.272;2023-04-06T04:07:20;9.52;;;6.53;;
14760;SDS011;7472;45.396;5.272;2023-04-06T04:09:47;11.95;;;6.95;;
14760;SDS011;7472;45.396;5.272;2023-04-06T04:12:15;9.52;;;6.10;;
14760;SDS011;7472;45.396;5.272;2023-04-06T04:14:44;10.52;;;6.38;;
14760;SDS011;7472;45.396;5.272;2023-04-06T04:17:11;11.30;;;6.82;;
14760;SDS011;7472;45.396;5.272;2023-04-06T04:19:38;12.30;;;7.93;;
14760;SDS011;7472;45.396;5.272;2023-04-06T04:22:06;10.60;;;7.43;;
14760;SDS011;7472;45.396;5.272;2023-04-06T04:24:33;10.75;;;6.53;;
14760;SDS011;7472;45.396;5.272;2023-04-06T04:27:01;10.05;;;6.60;;
14760;SDS011;7472;45.396;5.272;2023-04-06T04:29:28;10.55;;;7.25;;
14760;SDS011;7472;45.396;5.272;2023-04-06T04:31:57;11.95;;;7.97;;
14760;SDS011;7472;45.396;5.272;2023-04-06T04:34:25;10.20;;;7.57;;
14760;SDS011;7472;45.396;5.272;2023-04-06T04:36:53;11.55;;;7.07;;
14760;SDS011;7472;45.396;5.272;2023-04-06T04:39:20;8.02;;;5.45;;
14760;SDS011;7472;45.396;5.272;2023-04-06T04:41:48;8.55;;;6.45;;
14760;SDS011;7472;45.396;5.272;2023-04-06T04:44:15;8.48;;;6.13;;
14760;SDS011;7472;45.396;5.272;2023-04-06T04:46:42;7.00;;;5.35;;
14760;SDS011;7472;45.396;5.272;2023-04-06T04:49:11;8.10;;;6.15;;
14760;SDS011;7472;45.396;5.272;2023-04-06T04:51:39;7.18;;;6.07;;
14760;SDS011;7472;45.396;5.272;2023-04-06T04:54:06;11.68;;;6.85;;
14760;SDS011;7472;45.396;5.272;2023-04-06T04:56:33;9.85;;;6.65;;
14760;SDS011;7472;45.396;5.272;2023-04-06T04:59:01;13.40;;;7.72;;
14760;SDS011;7472;45.396;5.272;2023-04-06T05:01:28;13.93;;;8.10;;
14760;SDS011;7472;45.396;5.272;2023-04-06T05:03:56;12.68;;;9.05;;
14760;SDS011;7472;45.396;5.272;2023-04-06T05:06:24;13.57;;;8.38;;
14760;SDS011;7472;45.396;5.272;2023-04-06T05:08:52;12.00;;;8.13;;
14760;SDS011;7472;45.396;5.272;2023-04-06T05:11:19;9.50;;;6.75;;
14760;SDS011;7472;45.396;5.272;2023-04-06T05:13:47;9.75;;;6.18;;
14760;SDS011;7472;45.396;5.272;2023-04-06T05:16:15;11.30;;;7.68;;
14760;SDS011;7472;45.396;5.272;2023-04-06T05:18:42;11.10;;;6.82;;
14760;SDS011;7472;45.396;5.272;2023-04-06T05:21:10;14.43;;;8.77;;
14760;SDS011;7472;45.396;5.272;2023-04-06T05:23:39;14.40;;;8.45;;
14760;SDS011;7472;45.396;5.272;2023-04-06T05:26:07;12.65;;;7.97;;
14760;SDS011;7472;45.396;5.272;2023-04-06T05:28:34;12.82;;;8.38;;
14760;SDS011;7472;45.396;5.272;2023-04-06T05:31:02;23.38;;;12.13;;
14760;SDS011;7472;45.396;5.272;2023-04-06T05:33:29;20.75;;;10.63;;
14760;SDS011;7472;45.396;5.272;2023-04-06T05:35:57;14.25;;;8.25;;
14760;SDS011;7472;45.396;5.272;2023-04-06T05:38:25;14.88;;;8.45;;
14760;SDS011;7472;45.396;5.272;2023-04-06T05:40:54;10.85;;;7.75;;
14760;SDS011;7472;45.396;5.272;2023-04-06T05:43:22;12.00;;;6.82;;
14760;SDS011;7472;45.396;5.272;2023-04-06T05:45:49;11.93;;;6.80;;
14760;SDS011;7472;45.396;5.272;2023-04-06T05:48:17;13.23;;;7.40;;
14760;SDS011;7472;45.396;5.272;2023-04-06T05:50:47;10.70;;;6.75;;
14760;SDS011;7472;45.396;5.272;2023-04-06T05:53:15;12.23;;;6.97;;
14760;SDS011;7472;45.396;5.272;2023-04-06T05:55:43;14.93;;;7.72;;
14760;SDS011;7472;45.396;5.272;2023-04-06T05:58:12;9.68;;;5.93;;
14760;SDS011;7472;45.396;5.272;2023-04-06T06:00:40;11.07;;;6.40;;
14760;SDS011;7472;45.396;5.272;2023-04-06T06:03:07;9.07;;;6.90;;
14760;SDS011;7472;45.396;5.272;2023-04-06T06:05:35;7.90;;;5.88;;
14760;SDS011;7472;45.396;5.272;2023-04-06T06:08:02;9.13;;;6.07;;
14760;SDS011;7472;45.396;5.272;2023-04-06T06:10:30;9.35;;;6.40;;
14760;SDS011;7472;45.396;5.272;2023-04-06T06:12:57;11.45;;;6.55;;
14760;SDS011;7472;45.396;5.272;2023-04-06T06:15:26;8.15;;;5.82;;
14760;SDS011;7472;45.396;5.272;2023-04-06T06:17:54;11.45;;;6.20;;
14760;SDS011;7472;45.396;5.272;2023-04-06T06:20:21;8.50;;;5.57;;
14760;SDS011;7472;45.396;5.272;2023-04-06T06:22:49;7.18;;;5.70;;
14760;SDS011;7472;45.396;5.272;2023-04-06T06:25:16;8.82;;;4.88;;
14760;SDS011;7472;45.396;5.272;2023-04-06T06:27:43;9.02;;;6.20;;
14760;SDS011;7472;45.396;5.272;2023-04-06T06:30:11;11.75;;;9.27;;
14760;SDS011;7472;45.396;5.272;2023-04-06T06:32:40;8.02;;;6.63;;
14760;SDS011;7472;45.396;5.272;2023-04-06T06:35:08;11.13;;;8.10;;
14760;SDS011;7472;45.396;5.272;2023-04-06T06:37:35;10.63;;;6.10;;
14760;SDS011;7472;45.396;5.272;2023-04-06T06:40:03;14.40;;;8.18;;
14760;SDS011;7472;45.396;5.272;2023-04-06T06:42:30;12.55;;;8.23;;
14760;SDS011;7472;45.396;5.272;2023-04-06T06:44:58;8.65;;;7.75;;
14760;SDS011;7472;45.396;5.272;2023-04-06T06:47:25;9.65;;;6.90;;
14760;SDS011;7472;45.396;5.272;2023-04-06T06:49:54;9.52;;;7.65;;
14760;SDS011;7472;45.396;5.272;2023-04-06T06:52:21;10.68;;;6.32;;
14760;SDS011;7472;45.396;5.272;2023-04-06T06:54:49;16.48;;;11.27;;
14760;SDS011;7472;45.396;5.272;2023-04-06T06:57:16;15.05;;;12.43;;
14760;SDS011;7472;45.396;5.272;2023-04-06T06:59:44;11.25;;;7.60;;
14760;SDS011;7472;45.396;5.272;2023-04-06T07:02:11;10.95;;;7.88;;
14760;SDS011;7472;45.396;5.272;2023-04-06T07:04:39;13.75;;;10.82;;
14760;SDS011;7472;45.396;5.272;2023-04-06T07:07:07;12.35;;;8.80;;
14760;SDS011;7472;45.396;5.272;2023-04-06T07:09:35;12.82;;;9.52;;
14760;SDS011;7472;45.396;5.272;2023-04-06T07:12:02;10.70;;;7.95;;
14760;SDS011;7472;45.396;5.272;2023-04-06T07:14:30;12.32;;;9.93;;
14760;SDS011;7472;45.396;5.272;2023-04-06T07:16:57;12.95;;;9.43;;
14760;SDS011;7472;45.396;5.272;2023-04-06T07:19:25;12.43;;;9.60;;
14760;SDS011;7472;45.396;5.272;2023-04-06T07:21:52;12.63;;;10.13;;
14760;SDS011;7472;45.396;5.272;2023-04-06T07:24:21;17.98;;;11.95;;
14760;SDS011;7472;45.396;5.272;2023-04-06T07:26:48;13.02;;;10.48;;
14760;SDS011;7472;45.396;5.272;2023-04-06T07:29:16;13.57;;;9.93;;
14760;SDS011;7472;45.396;5.272;2023-04-06T07:31:44;13.55;;;8.93;;
14760;SDS011;7472;45.396;5.272;2023-04-06T07:34:11;11.57;;;9.20;;
14760;SDS011;7472;45.396;5.272;2023-04-06T07:36:39;9.23;;;7.85;;
14760;SDS011;7472;45.396;5.272;2023-04-06T07:39:06;12.57;;;8.07;;
14760;SDS011;7472;45.396;5.272;2023-04-06T07:41:35;8.30;;;7.40;;
14760;SDS011;7472;45.396;5.272;2023-04-06T07:44:03;6.90;;;6.20;;
14760;SDS011;7472;45.396;5.272;2023-04-06T07:46:30;9.35;;;6.38;;
14760;SDS011;7472;45.396;5.272;2023-04-06T07:48:58;7.68;;;5.95;;
14760;SDS011;7472;45.396;5.272;2023-04-06T07:51:26;7.32;;;6.03;;
14760;SDS011;7472;45.396;5.272;2023-04-06T07:53:53;8.50;;;6.20;;
14760;SDS011;7472;45.396;5.272;2023-04-06T07:56:21;7.82;;;6.35;;
14760;SDS011;7472;45.396;5.272;2023-04-06T07:58:50;8.00;;;6.28;;
14760;SDS011;7472;45.396;5.272;2023-04-06T08:01:17;8.13;;;5.53;;
14760;SDS011;7472;45.396;5.272;2023-04-06T08:03:44;12.63;;;7.22;;
14760;SDS011;7472;45.396;5.272;2023-04-06T08:06:12;8.32;;;5.80;;
14760;SDS011;7472;45.396;5.272;2023-04-06T08:08:39;7.20;;;5.75;;
14760;SDS011;7472;45.396;5.272;2023-04-06T08:11:07;7.55;;;5.75;;
14760;SDS011;7472;45.396;5.272;2023-04-06T08:13:34;8.70;;;5.78;;
14760;SDS011;7472;45.396;5.272;2023-04-06T08:16:03;6.25;;;5.57;;
14760;SDS011;7472;45.396;5.272;2023-04-06T08:18:31;9.77;;;6.97;;
14760;SDS011;7472;45.396;5.272;2023-04-06T08:20:59;6.70;;;6.00;;
14760;SDS011;7472;45.396;5.272;2023-04-06T08:23:26;7.05;;;5.80;;
14760;SDS011;7472;45.396;5.272;2023-04-06T08:25:54;7.65;;;6.53;;
14760;SDS011;7472;45.396;5.272;2023-04-06T08:28:21;7.40;;;5.85;;
14760;SDS011;7472;45.396;5.272;2023-04-06T08:30:48;6.28;;;5.68;;
14760;SDS011;7472;45.396;5.272;2023-04-06T08:33:17;7.45;;;5.50;;
14760;SDS011;7472;45.396;5.272;2023-04-06T08:35:45;6.75;;;5.18;;
14760;SDS011;7472;45.396;5.272;2023-04-06T08:38:12;8.18;;;5.95;;
14760;SDS011;7472;45.396;5.272;2023-04-06T08:40:39;7.20;;;5.70;;
14760;SDS011;7472;45.396;5.272;2023-04-06T08:43:10;8.95;;;5.90;;
14760;SDS011;7472;45.396;5.272;2023-04-06T08:45:40;7.78;;;5.55;;
14760;SDS011;7472;45.396;5.272;2023-04-06T08:48:07;7.38;;;5.38;;
14760;SDS011;7472;45.396;5.272;2023-04-06T08:50:37;8.65;;;5.43;;
14760;SDS011;7472;45.396;5.272;2023-04-06T08:53:06;7.65;;;5.93;;
14760;SDS011;7472;45.396;5.272;2023-04-06T08:55:34;6.57;;;5.88;;
14760;SDS011;7472;45.396;5.272;2023-04-06T08:58:02;7.18;;;5.65;;
14760;SDS011;7472;45.396;5.272;2023-04-06T09:00:30;11.52;;;6.35;;
14760;SDS011;7472;45.396;5.272;2023-04-06T09:02:58;6.97;;;6.20;;
14760;SDS011;7472;45.396;5.272;2023-04-06T09:05:25;7.18;;;6.35;;
14760;SDS011;7472;45.396;5.272;2023-04-06T09:07:54;6.97;;;6.28;;
14760;SDS011;7472;45.396;5.272;2023-04-06T09:10:22;11.63;;;6.43;;
14760;SDS011;7472;45.396;5.272;2023-04-06T09:12:50;10.48;;;6.53;;
14760;SDS011;7472;45.396;5.272;2023-04-06T09:15:18;8.98;;;6.53;;
14760;SDS011;7472;45.396;5.272;2023-04-06T09:17:46;9.93;;;6.20;;
14760;SDS011;7472;45.396;5.272;2023-04-06T09:20:13;9.32;;;6.30;;
14760;SDS011;7472;45.396;5.272;2023-04-06T09:22:42;7.07;;;5.60;;
14760;SDS011;7472;45.396;5.272;2023-04-06T09:25:17;7.13;;;6.43;;
14760;SDS011;7472;45.396;5.272;2023-04-06T09:27:45;11.15;;;6.97;;
14760;SDS011;7472;45.396;5.272;2023-04-06T09:30:12;8.63;;;6.25;;
14760;SDS011;7472;45.396;5.272;2023-04-06T09:32:45;7.97;;;5.90;;
14760;SDS011;7472;45.396;5.272;2023-04-06T09:35:12;7.20;;;6.05;;
14760;SDS011;7472;45.396;5.272;2023-04-06T09:37:40;10.15;;;5.90;;
14760;SDS011;7472;45.396;5.272;2023-04-06T09:40:07;7.03;;;5.60;;
14760;SDS011;7472;45.396;5.272;2023-04-06T09:42:36;6.35;;;5.55;;
14760;SDS011;7472;45.396;5.272;2023-04-06T09:45:04;6.65;;;5.13;;
14760;SDS011;7472;45.396;5.272;2023-04-06T09:47:32;7.47;;;4.55;;
14760;SDS011;7472;45.396;5.272;2023-04-06T09:49:59;6.80;;;5.13;;
14760;SDS011;7472;45.396;5.272;2023-04-06T09:52:27;7.78;;;4.30;;
14760;SDS011;7472;45.396;5.272;2023-04-06T09:54:59;5.03;;;4.25;;
14760;SDS011;7472;45.396;5.272;2023-04-06T09:57:29;5.53;;;4.68;;
14760;SDS011;7472;45.396;5.272;2023-04-06T10:00:03;5.13;;;4.15;;
14760;SDS011;7472;45.396;5.272;2023-04-06T10:02:41;5.05;;;4.00;;
14760;SDS011;7472;45.396;5.272;2023-04-06T10:05:13;4.90;;;3.85;;
14760;SDS011;7472;45.396;5.272;2023-04-06T10:07:41;4.97;;;4.13;;
14760;SDS011;7472;45.396;5.272;2023-04-06T10:10:09;5.93;;;4.40;;
14760;SDS011;7472;45.396;5.272;2023-04-06T10:12:37;5.25;;;4.10;;
14760;SDS011;7472;45.396;5.272;2023-04-06T10:15:07;6.72;;;4.43;;
14760;SDS011;7472;45.396;5.272;2023-04-06T10:17:35;7.00;;;4.35;;
14760;SDS011;7472;45.396;5.272;2023-04-06T10:20:04;6.32;;;4.68;;
14760;SDS011;7472;45.396;5.272;2023-04-06T10:22:36;5.97;;;4.68;;
14760;SDS011;7472;45.396;5.272;2023-04-06T10:25:05;5.88;;;5.13;;
14760;SDS011;7472;45.396;5.272;2023-04-06T10:27:34;7.65;;;4.40;;
14760;SDS011;7472;45.396;5.272;2023-04-06T10:30:02;7.07;;;4.80;;
14760;SDS011;7472;45.396;5.272;2023-04-06T10:32:35;6.22;;;4.57;;
14760;SDS011;7472;45.396;5.272;2023-04-06T10:35:06;5.50;;;4.53;;
14760;SDS011;7472;45.396;5.272;2023-04-06T10:37:45;5.60;;;3.85;;
14760;SDS011;7472;45.396;5.272;2023-04-06T10:40:20;4.93;;;4.25;;
14760;SDS011;7472;45.396;5.272;2023-04-06T10:42:48;6.57;;;4.35;;
14760;SDS011;7472;45.396;5.272;2023-04-06T10:45:19;5.47;;;3.90;;
14760;SDS011;7472;45.396;5.272;2023-04-06T10:47:48;5.78;;;4.43;;
14760;SDS011;7472;45.396;5.272;2023-04-06T10:50:15;4.20;;;3.15;;
14760;SDS011;7472;45.396;5.272;2023-04-06T10:52:44;5.03;;;4.53;;
14760;SDS011;7472;45.396;5.272;2023-04-06T10:55:12;4.13;;;3.72;;
14760;SDS011;7472;45.396;5.272;2023-04-06T10:57:40;4.65;;;3.60;;
14760;SDS011;7472;45.396;5.272;2023-04-06T11:00:08;5.10;;;4.32;;
14760;SDS011;7472;45.396;5.272;2023-04-06T11:02:35;5.50;;;4.57;;
14760;SDS011;7472;45.396;5.272;2023-04-06T11:05:06;6.13;;;4.20;;
14760;SDS011;7472;45.396;5.272;2023-04-06T11:07:33;5.45;;;3.88;;
14760;SDS011;7472;45.396;5.272;2023-04-06T11:10:01;4.68;;;3.70;;
14760;SDS011;7472;45.396;5.272;2023-04-06T11:12:28;4.50;;;3.35;;
14760;SDS011;7472;45.396;5.272;2023-04-06T11:14:56;4.88;;;3.67;;
14760;SDS011;7472;45.396;5.272;2023-04-06T11:17:29;5.10;;;3.83;;
14760;SDS011;7472;45.396;5.272;2023-04-06T11:19:57;4.93;;;3.80;;
14760;SDS011;7472;45.396;5.272;2023-04-06T11:22:26;6.20;;;3.85;;
14760;SDS011;7472;45.396;5.272;2023-04-06T11:25:04;8.15;;;3.38;;
14760;SDS011;7472;45.396;5.272;2023-04-06T11:27:31;7.55;;;3.70;;
14760;SDS011;7472;45.396;5.272;2023-04-06T11:29:59;5.22;;;4.72;;
14760;SDS011;7472;45.396;5.272;2023-04-06T11:32:27;4.15;;;3.28;;
14760;SDS011;7472;45.396;5.272;2023-04-06T11:34:54;5.53;;;4.00;;
14760;SDS011;7472;45.396;5.272;2023-04-06T11:37:22;5.95;;;3.80;;
14760;SDS011;7472;45.396;5.272;2023-04-06T11:39:54;4.65;;;3.80;;
14760;SDS011;7472;45.396;5.272;2023-04-06T11:42:22;4.00;;;3.50;;
14760;SDS011;7472;45.396;5.272;2023-04-06T11:44:50;3.95;;;3.13;;
14760;SDS011;7472;45.396;5.272;2023-04-06T11:47:18;5.85;;;3.15;;
14760;SDS011;7472;45.396;5.272;2023-04-06T11:49:47;4.93;;;3.92;;
14760;SDS011;7472;45.396;5.272;2023-04-06T11:52:16;6.10;;;3.10;;
14760;SDS011;7472;45.396;5.272;2023-04-06T11:54:43;3.35;;;3.03;;
14760;SDS011;7472;45.396;5.272;2023-04-06T11:57:12;3.60;;;2.92;;
14760;SDS011;7472;45.396;5.272;2023-04-06T11:59:40;4.22;;;2.80;;
14760;SDS011;7472;45.396;5.272;2023-04-06T12:02:08;3.28;;;2.67;;
14760;SDS011;7472;45.396;5.272;2023-04-06T12:04:35;3.90;;;3.17;;
14760;SDS011;7472;45.396;5.272;2023-04-06T12:07:03;4.85;;;3.78;;
14760;SDS011;7472;45.396;5.272;2023-04-06T12:09:31;3.85;;;3.10;;
14760;SDS011;7472;45.396;5.272;2023-04-06T12:11:59;3.50;;;3.20;;
14760;SDS011;7472;45.396;5.272;2023-04-06T12:14:28;3.63;;;2.97;;
14760;SDS011;7472;45.396;5.272;2023-04-06T12:16:56;4.03;;;3.13;;
14760;SDS011;7472;45.396;5.272;2023-04-06T12:19:23;3.95;;;3.20;;
14760;SDS011;7472;45.396;5.272;2023-04-06T12:21:51;3.42;;;2.65;;
14760;SDS011;7472;45.396;5.272;2023-04-06T12:24:19;4.20;;;3.72;;
14760;SDS011;7472;45.396;5.272;2023-04-06T12:26:47;9.52;;;3.97;;
14760;SDS011;7472;45.396;5.272;2023-04-06T12:29:14;6.55;;;3.78;;
14760;SDS011;7472;45.396;5.272;2023-04-06T12:31:43;3.92;;;3.53;;
14760;SDS011;7472;45.396;5.272;2023-04-06T12:34:10;3.70;;;3.10;;
14760;SDS011;7472;45.396;5.272;2023-04-06T12:36:38;3.38;;;2.97;;
14760;SDS011;7472;45.396;5.272;2023-04-06T12:39:05;3.75;;;3.45;;
14760;SDS011;7472;45.396;5.272;2023-04-06T12:41:33;4.60;;;3.67;;
14760;SDS011;7472;45.396;5.272;2023-04-06T12:44:00;2.90;;;2.60;;
14760;SDS011;7472;45.396;5.272;2023-04-06T12:46:28;2.80;;;2.47;;
14760;SDS011;7472;45.396;5.272;2023-04-06T12:48:57;3.22;;;2.40;;
14760;SDS011;7472;45.396;5.272;2023-04-06T12:51:27;3.53;;;3.20;;
14760;SDS011;7472;45.396;5.272;2023-04-06T12:53:56;4.50;;;2.97;;
14760;SDS011;7472;45.396;5.272;2023-04-06T12:56:24;3.65;;;3.28;;
14760;SDS011;7472;45.396;5.272;2023-04-06T12:58:52;4.43;;;3.40;;
14760;SDS011;7472;45.396;5.272;2023-04-06T13:01:19;5.85;;;4.00;;
14760;SDS011;7472;45.396;5.272;2023-04-06T13:03:47;3.58;;;3.10;;
14760;SDS011;7472;45.396;5.272;2023-04-06T13:06:16;3.65;;;3.28;;
14760;SDS011;7472;45.396;5.272;2023-04-06T13:08:43;5.28;;;3.33;;
14760;SDS011;7472;45.396;5.272;2023-04-06T13:11:12;3.10;;;2.58;;
14760;SDS011;7472;45.396;5.272;2023-04-06T13:13:39;3.85;;;2.63;;
14760;SDS011;7472;45.396;5.272;2023-04-06T13:16:07;2.92;;;2.55;;
14760;SDS011;7472;45.396;5.272;2023-04-06T13:18:35;3.05;;;2.17;;
14760;SDS011;7472;45.396;5.272;2023-04-06T13:21:03;2.90;;;2.13;;
14760;SDS011;7472;45.396;5.272;2023-04-06T13:23:32;2.65;;;1.88;;
14760;SDS011;7472;45.396;5.272;2023-04-06T13:26:00;2.60;;;2.35;;
14760;SDS011;7472;45.396;5.272;2023-04-06T13:28:28;2.97;;;2.25;;
14760;SDS011;7472;45.396;5.272;2023-04-06T13:30:57;2.47;;;2.05;;
14760;SDS011;7472;45.396;5.272;2023-04-06T13:33:25;2.60;;;2.30;;
14760;SDS011;7472;45.396;5.272;2023-04-06T13:35:53;2.63;;;1.70;;
14760;SDS011;7472;45.396;5.272;2023-04-06T13:38:20;2.33;;;1.83;;
14760;SDS011;7472;45.396;5.272;2023-04-06T13:40:50;1.95;;;1.65;;
14760;SDS011;7472;45.396;5.272;2023-04-06T13:43:18;2.17;;;1.42;;
14760;SDS011;7472;45.396;5.272;2023-04-06T13:45:48;3.05;;;2.22;;
14760;SDS011;7472;45.396;5.272;2023-04-06T13:48:16;3.95;;;1.90;;
14760;SDS011;7472;45.396;5.272;2023-04-06T13:50:43;1.73;;;1.58;;
14760;SDS011;7472;45.396;5.272;2023-04-06T13:53:11;3.00;;;2.25;;
14760;SDS011;7472;45.396;5.272;2023-04-06T13:55:38;1.67;;;1.27;;
14760;SDS011;7472;45.396;5.272;2023-04-06T13:58:07;4.75;;;1.67;;
14760;SDS011;7472;45.396;5.272;2023-04-06T14:00:35;2.60;;;1.73;;
14760;SDS011;7472;45.396;5.272;2023-04-06T14:03:03;2.38;;;1.65;;
14760;SDS011;7472;45.396;5.272;2023-04-06T14:05:30;1.48;;;1.30;;
14760;SDS011;7472;45.396;5.272;2023-04-06T14:07:58;2.92;;;1.85;;
14760;SDS011;7472;45.396;5.272;2023-04-06T14:10:25;2.00;;;1.73;;
14760;SDS011;7472;45.396;5.272;2023-04-06T14:12:53;2.90;;;2.00;;
14760;SDS011;7472;45.396;5.272;2023-04-06T14:15:22;3.63;;;1.90;;
14760;SDS011;7472;45.396;5.272;2023-04-06T14:17:49;2.58;;;1.75;;
14760;SDS011;7472;45.396;5.272;2023-04-06T14:20:17;4.07;;;1.92;;
14760;SDS011;7472;45.396;5.272;2023-04-06T14:22:44;2.25;;;2.05;;
14760;SDS011;7472;45.396;5.272;2023-04-06T14:25:14;3.10;;;2.40;;
14760;SDS011;7472;45.396;5.272;2023-04-06T14:27:42;3.67;;;2.47;;
14760;SDS011;7472;45.396;5.272;2023-04-06T14:30:09;2.83;;;1.92;;
14760;SDS011;7472;45.396;5.272;2023-04-06T14:32:38;3.17;;;2.17;;
14760;SDS011;7472;45.396;5.272;2023-04-06T14:35:06;2.13;;;1.80;;
14760;SDS011;7472;45.396;5.272;2023-04-06T14:37:33;2.60;;;2.20;;
14760;SDS011;7472;45.396;5.272;2023-04-06T14:40:01;3.35;;;2.72;;
14760;SDS011;7472;45.396;5.272;2023-04-06T14:42:28;4.57;;;2.42;;
14760;SDS011;7472;45.396;5.272;2023-04-06T14:44:56;4.60;;;3.35;;
14760;SDS011;7472;45.396;5.272;2023-04-06T14:47:24;3.55;;;2.55;;
14760;SDS011;7472;45.396;5.272;2023-04-06T14:49:53;3.50;;;2.05;;
14760;SDS011;7472;45.396;5.272;2023-04-06T14:52:20;3.83;;;2.80;;
14760;SDS011;7472;45.396;5.272;2023-04-06T14:54:47;3.78;;;2.88;;
14760;SDS011;7472;45.396;5.272;2023-04-06T14:57:15;3.35;;;2.72;;
14760;SDS011;7472;45.396;5.272;2023-04-06T14:59:42;3.08;;;2.60;;
14760;SDS011;7472;45.396;5.272;2023-04-06T15:02:09;4.50;;;2.40;;